sensor_id;sensor_type;location;lat;lon;timestamp;temperature;humidity
38333;DHT22;25748;46.670;14.272;2022-07-29T00:00:05;18.90;58.70
38333;DHT22;25748;46.670;14.272;2022-07-29T00:02:31;18.90;59.00
38333;DHT22;25748;46.670;14.272;2022-07-29T00:04:57;18.80;59.30
38333;DHT22;25748;46.670;14.272;2022-07-29T00:07:23;18.80;59.60
38333;DHT22;25748;46.670;14.272;2022-07-29T00:09:49;18.70;60.10
38333;DHT22;25748;46.670;14.272;2022-07-29T00:12:14;18.70;60.50
38333;DHT22;25748;46.670;14.272;2022-07-29T00:14:40;18.70;60.70
38333;DHT22;25748;46.670;14.272;2022-07-29T00:17:06;18.60;61.00
38333;DHT22;25748;46.670;14.272;2022-07-29T00:19:32;18.60;61.60
38333;DHT22;25748;46.670;14.272;2022-07-29T00:21:57;18.50;62.30
38333;DHT22;25748;46.670;14.272;2022-07-29T00:24:23;18.50;62.90
38333;DHT22;25748;46.670;14.272;2022-07-29T00:26:48;18.40;63.20
38333;DHT22;25748;46.670;14.272;2022-07-29T00:29:14;18.40;63.60
38333;DHT22;25748;46.670;14.272;2022-07-29T00:31:40;18.40;64.10
38333;DHT22;25748;46.670;14.272;2022-07-29T00:34:05;18.30;64.70
38333;DHT22;25748;46.670;14.272;2022-07-29T00:36:51;18.30;65.30
38333;DHT22;25748;46.670;14.272;2022-07-29T00:39:18;18.30;65.90
38333;DHT22;25748;46.670;14.272;2022-07-29T00:41:43;18.30;66.70
38333;DHT22;25748;46.670;14.272;2022-07-29T00:44:09;18.20;66.90
38333;DHT22;25748;46.670;14.272;2022-07-29T00:46:35;18.20;67.20
38333;DHT22;25748;46.670;14.272;2022-07-29T00:49:00;18.20;67.50
38333;DHT22;25748;46.670;14.272;2022-07-29T00:51:27;18.20;68.00
38333;DHT22;25748;46.670;14.272;2022-07-29T00:53:53;18.30;68.50
38333;DHT22;25748;46.670;14.272;2022-07-29T00:56:19;18.20;68.60
38333;DHT22;25748;46.670;14.272;2022-07-29T00:58:46;18.20;68.80
38333;DHT22;25748;46.670;14.272;2022-07-29T01:01:13;18.20;69.20
38333;DHT22;25748;46.670;14.272;2022-07-29T01:03:39;18.10;68.90
38333;DHT22;25748;46.670;14.272;2022-07-29T01:06:05;18.10;69.00
38333;DHT22;25748;46.670;14.272;2022-07-29T01:08:31;18.10;69.30
38333;DHT22;25748;46.670;14.272;2022-07-29T01:10:58;18.00;69.50
38333;DHT22;25748;46.670;14.272;2022-07-29T01:13:25;18.00;70.10
38333;DHT22;25748;46.670;14.272;2022-07-29T01:16:01;17.90;70.50
38333;DHT22;25748;46.670;14.272;2022-07-29T01:18:36;17.90;70.80
38333;DHT22;25748;46.670;14.272;2022-07-29T01:27:03;17.80;71.80
38333;DHT22;25748;46.670;14.272;2022-07-29T01:29:35;17.70;72.30
38333;DHT22;25748;46.670;14.272;2022-07-29T01:32:19;17.70;72.70
38333;DHT22;25748;46.670;14.272;2022-07-29T01:34:56;17.70;73.30
38333;DHT22;25748;46.670;14.272;2022-07-29T01:37:43;17.60;73.60
38333;DHT22;25748;46.670;14.272;2022-07-29T01:42:47;17.50;74.10
38333;DHT22;25748;46.670;14.272;2022-07-29T01:45:23;17.50;74.30
38333;DHT22;25748;46.670;14.272;2022-07-29T01:48:05;17.50;74.80
38333;DHT22;25748;46.670;14.272;2022-07-29T01:50:52;17.40;75.20
38333;DHT22;25748;46.670;14.272;2022-07-29T01:53:43;17.40;75.40
38333;DHT22;25748;46.670;14.272;2022-07-29T01:56:12;17.40;75.60
38333;DHT22;25748;46.670;14.272;2022-07-29T01:58:40;17.40;75.80
38333;DHT22;25748;46.670;14.272;2022-07-29T02:01:09;17.40;76.10
38333;DHT22;25748;46.670;14.272;2022-07-29T02:03:36;17.40;76.30
38333;DHT22;25748;46.670;14.272;2022-07-29T02:06:04;17.40;76.60
38333;DHT22;25748;46.670;14.272;2022-07-29T02:08:32;17.40;76.40
38333;DHT22;25748;46.670;14.272;2022-07-29T02:11:00;17.30;76.10
38333;DHT22;25748;46.670;14.272;2022-07-29T02:13:27;17.30;76.00
38333;DHT22;25748;46.670;14.272;2022-07-29T02:15:55;17.30;76.10
38333;DHT22;25748;46.670;14.272;2022-07-29T02:18:23;17.20;76.60
38333;DHT22;25748;46.670;14.272;2022-07-29T02:20:54;17.20;76.90
38333;DHT22;25748;46.670;14.272;2022-07-29T02:23:22;17.20;77.00
38333;DHT22;25748;46.670;14.272;2022-07-29T02:25:51;17.20;77.10
38333;DHT22;25748;46.670;14.272;2022-07-29T02:28:19;17.10;77.10
38333;DHT22;25748;46.670;14.272;2022-07-29T02:30:46;17.10;77.20
38333;DHT22;25748;46.670;14.272;2022-07-29T02:33:14;17.10;77.20
38333;DHT22;25748;46.670;14.272;2022-07-29T02:35:43;17.10;77.30
38333;DHT22;25748;46.670;14.272;2022-07-29T02:38:13;17.10;77.80
38333;DHT22;25748;46.670;14.272;2022-07-29T02:41:00;17.00;78.10
38333;DHT22;25748;46.670;14.272;2022-07-29T02:43:26;17.00;78.20
38333;DHT22;25748;46.670;14.272;2022-07-29T02:45:54;17.00;78.10
38333;DHT22;25748;46.670;14.272;2022-07-29T02:48:30;16.90;78.00
38333;DHT22;25748;46.670;14.272;2022-07-29T02:51:05;17.00;78.10
38333;DHT22;25748;46.670;14.272;2022-07-29T02:53:33;16.90;78.50
38333;DHT22;25748;46.670;14.272;2022-07-29T02:56:04;16.90;78.50
38333;DHT22;25748;46.670;14.272;2022-07-29T02:58:34;16.90;78.60
38333;DHT22;25748;46.670;14.272;2022-07-29T03:01:08;16.90;78.90
38333;DHT22;25748;46.670;14.272;2022-07-29T03:03:36;16.80;78.70
38333;DHT22;25748;46.670;14.272;2022-07-29T03:06:04;16.90;79.00
38333;DHT22;25748;46.670;14.272;2022-07-29T03:08:32;16.90;79.20
38333;DHT22;25748;46.670;14.272;2022-07-29T03:11:00;16.80;79.10
38333;DHT22;25748;46.670;14.272;2022-07-29T03:13:27;16.90;79.20
38333;DHT22;25748;46.670;14.272;2022-07-29T03:15:54;16.80;79.20
38333;DHT22;25748;46.670;14.272;2022-07-29T03:18:20;16.80;79.30
38333;DHT22;25748;46.670;14.272;2022-07-29T03:20:46;16.80;79.40
38333;DHT22;25748;46.670;14.272;2022-07-29T03:23:12;16.80;79.70
38333;DHT22;25748;46.670;14.272;2022-07-29T03:25:43;16.80;79.90
38333;DHT22;25748;46.670;14.272;2022-07-29T03:28:09;16.80;80.00
38333;DHT22;25748;46.670;14.272;2022-07-29T03:30:35;16.70;80.00
38333;DHT22;25748;46.670;14.272;2022-07-29T03:33:00;16.70;79.90
38333;DHT22;25748;46.670;14.272;2022-07-29T03:35:26;16.70;79.80
38333;DHT22;25748;46.670;14.272;2022-07-29T03:37:52;16.70;79.80
38333;DHT22;25748;46.670;14.272;2022-07-29T03:40:25;16.70;80.30
38333;DHT22;25748;46.670;14.272;2022-07-29T03:42:53;16.60;80.40
38333;DHT22;25748;46.670;14.272;2022-07-29T03:45:20;16.60;80.60
38333;DHT22;25748;46.670;14.272;2022-07-29T03:47:51;16.60;80.50
38333;DHT22;25748;46.670;14.272;2022-07-29T03:50:19;16.60;80.50
38333;DHT22;25748;46.670;14.272;2022-07-29T03:52:46;16.50;80.40
38333;DHT22;25748;46.670;14.272;2022-07-29T03:55:13;16.50;80.80
38333;DHT22;25748;46.670;14.272;2022-07-29T03:57:40;16.50;80.50
38333;DHT22;25748;46.670;14.272;2022-07-29T04:00:07;16.40;80.70
38333;DHT22;25748;46.670;14.272;2022-07-29T04:02:33;16.40;80.90
38333;DHT22;25748;46.670;14.272;2022-07-29T04:04:59;16.40;81.30
38333;DHT22;25748;46.670;14.272;2022-07-29T04:07:25;16.40;81.40
38333;DHT22;25748;46.670;14.272;2022-07-29T04:09:51;16.40;81.30
38333;DHT22;25748;46.670;14.272;2022-07-29T04:12:16;16.40;81.60
38333;DHT22;25748;46.670;14.272;2022-07-29T04:14:42;16.30;81.90
38333;DHT22;25748;46.670;14.272;2022-07-29T04:17:08;16.30;82.20
38333;DHT22;25748;46.670;14.272;2022-07-29T04:19:34;16.30;82.40
38333;DHT22;25748;46.670;14.272;2022-07-29T04:22:00;16.30;82.80
38333;DHT22;25748;46.670;14.272;2022-07-29T04:24:26;16.30;83.20
38333;DHT22;25748;46.670;14.272;2022-07-29T04:26:53;16.30;84.10
38333;DHT22;25748;46.670;14.272;2022-07-29T04:29:19;16.40;84.30
38333;DHT22;25748;46.670;14.272;2022-07-29T04:31:45;16.40;84.70
38333;DHT22;25748;46.670;14.272;2022-07-29T04:34:11;16.40;85.10
38333;DHT22;25748;46.670;14.272;2022-07-29T04:36:37;16.40;85.50
38333;DHT22;25748;46.670;14.272;2022-07-29T04:39:03;16.50;85.80
38333;DHT22;25748;46.670;14.272;2022-07-29T04:41:29;16.50;85.90
38333;DHT22;25748;46.670;14.272;2022-07-29T04:43:55;16.50;86.00
38333;DHT22;25748;46.670;14.272;2022-07-29T04:46:20;16.60;86.00
38333;DHT22;25748;46.670;14.272;2022-07-29T04:48:46;16.70;85.90
38333;DHT22;25748;46.670;14.272;2022-07-29T04:51:16;16.70;85.60
38333;DHT22;25748;46.670;14.272;2022-07-29T04:53:42;16.80;85.40
38333;DHT22;25748;46.670;14.272;2022-07-29T04:56:07;16.80;85.30
38333;DHT22;25748;46.670;14.272;2022-07-29T04:58:37;16.90;85.40
38333;DHT22;25748;46.670;14.272;2022-07-29T05:01:03;17.00;85.60
38333;DHT22;25748;46.670;14.272;2022-07-29T05:03:29;17.00;85.80
38333;DHT22;25748;46.670;14.272;2022-07-29T05:05:55;17.20;86.10
38333;DHT22;25748;46.670;14.272;2022-07-29T05:08:21;17.30;86.40
38333;DHT22;25748;46.670;14.272;2022-07-29T05:10:47;17.60;86.60
38333;DHT22;25748;46.670;14.272;2022-07-29T05:13:12;17.90;86.10
38333;DHT22;25748;46.670;14.272;2022-07-29T05:15:38;18.30;84.80
38333;DHT22;25748;46.670;14.272;2022-07-29T05:18:04;18.70;82.80
38333;DHT22;25748;46.670;14.272;2022-07-29T05:20:31;19.20;80.60
38333;DHT22;25748;46.670;14.272;2022-07-29T05:23:00;19.90;75.10
38333;DHT22;25748;46.670;14.272;2022-07-29T05:25:27;20.50;70.90
38333;DHT22;25748;46.670;14.272;2022-07-29T05:27:53;21.20;65.90
38333;DHT22;25748;46.670;14.272;2022-07-29T05:30:21;21.90;62.40
38333;DHT22;25748;46.670;14.272;2022-07-29T05:32:47;22.70;59.60
38333;DHT22;25748;46.670;14.272;2022-07-29T05:35:13;23.50;57.10
38333;DHT22;25748;46.670;14.272;2022-07-29T05:37:40;24.10;54.90
38333;DHT22;25748;46.670;14.272;2022-07-29T05:40:06;24.50;53.70
38333;DHT22;25748;46.670;14.272;2022-07-29T05:42:32;24.80;52.70
38333;DHT22;25748;46.670;14.272;2022-07-29T05:44:58;24.90;52.20
38333;DHT22;25748;46.670;14.272;2022-07-29T05:47:24;25.00;51.80
38333;DHT22;25748;46.670;14.272;2022-07-29T05:49:50;25.20;51.40
38333;DHT22;25748;46.670;14.272;2022-07-29T05:52:16;25.40;51.40
38333;DHT22;25748;46.670;14.272;2022-07-29T05:54:42;25.30;49.70
38333;DHT22;25748;46.670;14.272;2022-07-29T05:57:08;25.00;50.40
38333;DHT22;25748;46.670;14.272;2022-07-29T05:59:37;24.60;50.30
38333;DHT22;25748;46.670;14.272;2022-07-29T06:02:03;24.40;50.70
38333;DHT22;25748;46.670;14.272;2022-07-29T06:04:31;24.10;51.00
38333;DHT22;25748;46.670;14.272;2022-07-29T06:06:57;23.90;51.10
38333;DHT22;25748;46.670;14.272;2022-07-29T06:09:24;23.70;51.40
38333;DHT22;25748;46.670;14.272;2022-07-29T06:11:52;23.50;51.80
38333;DHT22;25748;46.670;14.272;2022-07-29T06:14:18;23.40;52.30
38333;DHT22;25748;46.670;14.272;2022-07-29T06:16:44;23.40;53.10
38333;DHT22;25748;46.670;14.272;2022-07-29T06:19:10;23.50;52.90
38333;DHT22;25748;46.670;14.272;2022-07-29T06:21:35;23.40;52.60
38333;DHT22;25748;46.670;14.272;2022-07-29T06:24:01;23.40;52.60
38333;DHT22;25748;46.670;14.272;2022-07-29T06:26:27;23.40;52.50
38333;DHT22;25748;46.670;14.272;2022-07-29T06:28:53;23.40;52.60
38333;DHT22;25748;46.670;14.272;2022-07-29T06:31:18;23.40;52.30
38333;DHT22;25748;46.670;14.272;2022-07-29T06:33:44;23.20;52.10
38333;DHT22;25748;46.670;14.272;2022-07-29T06:36:10;23.10;52.20
38333;DHT22;25748;46.670;14.272;2022-07-29T06:38:36;23.00;52.50
38333;DHT22;25748;46.670;14.272;2022-07-29T06:41:03;22.80;52.70
38333;DHT22;25748;46.670;14.272;2022-07-29T06:43:35;22.60;52.80
38333;DHT22;25748;46.670;14.272;2022-07-29T06:46:03;22.50;53.00
38333;DHT22;25748;46.670;14.272;2022-07-29T06:48:29;22.40;53.20
38333;DHT22;25748;46.670;14.272;2022-07-29T06:50:55;22.40;53.40
38333;DHT22;25748;46.670;14.272;2022-07-29T06:53:21;22.40;53.50
38333;DHT22;25748;46.670;14.272;2022-07-29T06:55:47;22.40;53.70
38333;DHT22;25748;46.670;14.272;2022-07-29T06:58:13;22.40;53.70
38333;DHT22;25748;46.670;14.272;2022-07-29T07:00:42;22.30;54.10
38333;DHT22;25748;46.670;14.272;2022-07-29T07:03:08;22.30;53.80
38333;DHT22;25748;46.670;14.272;2022-07-29T07:05:34;22.30;53.90
38333;DHT22;25748;46.670;14.272;2022-07-29T07:07:59;22.40;54.10
38333;DHT22;25748;46.670;14.272;2022-07-29T07:10:25;22.40;54.00
38333;DHT22;25748;46.670;14.272;2022-07-29T07:12:51;22.30;54.00
38333;DHT22;25748;46.670;14.272;2022-07-29T07:15:17;22.30;54.10
38333;DHT22;25748;46.670;14.272;2022-07-29T07:17:49;22.30;54.00
38333;DHT22;25748;46.670;14.272;2022-07-29T07:20:19;22.20;54.10
38333;DHT22;25748;46.670;14.272;2022-07-29T07:22:45;22.10;54.10
38333;DHT22;25748;46.670;14.272;2022-07-29T07:25:12;22.10;54.10
38333;DHT22;25748;46.670;14.272;2022-07-29T07:27:38;22.10;54.30
38333;DHT22;25748;46.670;14.272;2022-07-29T07:30:05;22.00;54.20
38333;DHT22;25748;46.670;14.272;2022-07-29T07:32:34;22.00;54.30
38333;DHT22;25748;46.670;14.272;2022-07-29T07:35:00;22.00;54.30
38333;DHT22;25748;46.670;14.272;2022-07-29T07:37:26;22.00;54.60
38333;DHT22;25748;46.670;14.272;2022-07-29T07:39:52;22.00;54.50
38333;DHT22;25748;46.670;14.272;2022-07-29T07:42:19;22.10;55.00
38333;DHT22;25748;46.670;14.272;2022-07-29T07:44:45;22.10;54.90
38333;DHT22;25748;46.670;14.272;2022-07-29T07:47:11;22.10;54.80
38333;DHT22;25748;46.670;14.272;2022-07-29T07:49:37;22.10;54.90
38333;DHT22;25748;46.670;14.272;2022-07-29T07:52:03;22.20;55.00
38333;DHT22;25748;46.670;14.272;2022-07-29T07:54:29;22.20;54.90
38333;DHT22;25748;46.670;14.272;2022-07-29T07:56:55;22.30;55.00
38333;DHT22;25748;46.670;14.272;2022-07-29T07:59:21;22.40;55.00
38333;DHT22;25748;46.670;14.272;2022-07-29T08:01:46;22.30;54.70
38333;DHT22;25748;46.670;14.272;2022-07-29T08:04:12;22.40;55.00
38333;DHT22;25748;46.670;14.272;2022-07-29T08:06:38;22.50;54.90
38333;DHT22;25748;46.670;14.272;2022-07-29T08:09:04;22.60;55.10
38333;DHT22;25748;46.670;14.272;2022-07-29T08:11:31;22.60;54.80
38333;DHT22;25748;46.670;14.272;2022-07-29T08:13:56;22.80;54.50
38333;DHT22;25748;46.670;14.272;2022-07-29T08:16:22;22.90;53.80
38333;DHT22;25748;46.670;14.272;2022-07-29T08:18:51;23.00;53.40
38333;DHT22;25748;46.670;14.272;2022-07-29T08:21:17;23.10;53.80
38333;DHT22;25748;46.670;14.272;2022-07-29T08:23:44;23.30;53.60
38333;DHT22;25748;46.670;14.272;2022-07-29T08:26:19;23.40;53.30
38333;DHT22;25748;46.670;14.272;2022-07-29T08:28:46;23.60;53.10
38333;DHT22;25748;46.670;14.272;2022-07-29T08:31:15;23.70;52.80
38333;DHT22;25748;46.670;14.272;2022-07-29T08:33:42;23.70;52.80
38333;DHT22;25748;46.670;14.272;2022-07-29T08:36:08;23.70;52.30
38333;DHT22;25748;46.670;14.272;2022-07-29T08:38:34;23.70;52.20
38333;DHT22;25748;46.670;14.272;2022-07-29T08:41:03;23.80;52.10
38333;DHT22;25748;46.670;14.272;2022-07-29T08:43:29;23.80;52.30
38333;DHT22;25748;46.670;14.272;2022-07-29T08:45:54;23.80;51.80
38333;DHT22;25748;46.670;14.272;2022-07-29T08:48:22;23.80;51.60
38333;DHT22;25748;46.670;14.272;2022-07-29T08:50:52;23.80;51.60
38333;DHT22;25748;46.670;14.272;2022-07-29T08:53:19;23.80;51.70
38333;DHT22;25748;46.670;14.272;2022-07-29T08:55:48;23.80;51.60
38333;DHT22;25748;46.670;14.272;2022-07-29T08:58:15;23.80;51.50
38333;DHT22;25748;46.670;14.272;2022-07-29T09:00:43;23.80;51.40
38333;DHT22;25748;46.670;14.272;2022-07-29T09:03:12;23.70;51.10
38333;DHT22;25748;46.670;14.272;2022-07-29T09:05:42;23.70;51.30
38333;DHT22;25748;46.670;14.272;2022-07-29T09:08:08;23.70;51.50
38333;DHT22;25748;46.670;14.272;2022-07-29T09:10:37;23.70;51.70
38333;DHT22;25748;46.670;14.272;2022-07-29T09:13:03;23.60;52.00
38333;DHT22;25748;46.670;14.272;2022-07-29T09:15:29;23.60;52.00
38333;DHT22;25748;46.670;14.272;2022-07-29T09:17:55;23.50;51.80
38333;DHT22;25748;46.670;14.272;2022-07-29T09:20:22;23.50;52.00
38333;DHT22;25748;46.670;14.272;2022-07-29T09:22:49;23.60;52.00
38333;DHT22;25748;46.670;14.272;2022-07-29T09:25:35;23.60;52.00
38333;DHT22;25748;46.670;14.272;2022-07-29T09:28:16;23.70;52.30
38333;DHT22;25748;46.670;14.272;2022-07-29T09:30:58;23.80;52.10
38333;DHT22;25748;46.670;14.272;2022-07-29T09:33:31;23.90;52.00
38333;DHT22;25748;46.670;14.272;2022-07-29T09:36:11;23.90;51.60
38333;DHT22;25748;46.670;14.272;2022-07-29T09:38:37;23.80;50.90
38333;DHT22;25748;46.670;14.272;2022-07-29T09:41:04;23.90;51.10
38333;DHT22;25748;46.670;14.272;2022-07-29T09:43:30;24.10;51.50
38333;DHT22;25748;46.670;14.272;2022-07-29T09:46:02;24.20;51.00
38333;DHT22;25748;46.670;14.272;2022-07-29T09:48:34;24.40;51.00
38333;DHT22;25748;46.670;14.272;2022-07-29T09:51:00;24.50;50.80
38333;DHT22;25748;46.670;14.272;2022-07-29T09:53:35;24.70;50.20
38333;DHT22;25748;46.670;14.272;2022-07-29T09:56:04;24.90;50.00
38333;DHT22;25748;46.670;14.272;2022-07-29T09:58:30;25.00;49.40
38333;DHT22;25748;46.670;14.272;2022-07-29T10:01:00;25.20;50.40
38333;DHT22;25748;46.670;14.272;2022-07-29T10:03:27;25.50;49.50
38333;DHT22;25748;46.670;14.272;2022-07-29T10:06:09;25.70;49.30
38333;DHT22;25748;46.670;14.272;2022-07-29T10:08:36;26.00;49.30
38333;DHT22;25748;46.670;14.272;2022-07-29T10:13:35;26.40;48.00
38333;DHT22;25748;46.670;14.272;2022-07-29T10:16:00;26.50;47.50
38333;DHT22;25748;46.670;14.272;2022-07-29T10:18:26;26.50;46.60
38333;DHT22;25748;46.670;14.272;2022-07-29T10:20:52;26.60;45.90
38333;DHT22;25748;46.670;14.272;2022-07-29T10:23:18;26.60;46.40
38333;DHT22;25748;46.670;14.272;2022-07-29T10:25:45;26.90;46.20
38333;DHT22;25748;46.670;14.272;2022-07-29T10:28:11;27.10;45.90
38333;DHT22;25748;46.670;14.272;2022-07-29T10:30:38;27.20;46.40
38333;DHT22;25748;46.670;14.272;2022-07-29T10:33:43;27.50;46.20
38333;DHT22;25748;46.670;14.272;2022-07-29T10:37:16;27.70;46.10
38333;DHT22;25748;46.670;14.272;2022-07-29T10:39:26;27.90;45.40
38333;DHT22;25748;46.670;14.272;2022-07-29T10:44:29;28.30;44.30
38333;DHT22;25748;46.670;14.272;2022-07-29T10:46:55;28.40;43.50
38333;DHT22;25748;46.670;14.272;2022-07-29T10:54:35;28.50;42.80
38333;DHT22;25748;46.670;14.272;2022-07-29T10:57:16;28.60;42.50
38333;DHT22;25748;46.670;14.272;2022-07-29T11:07:25;29.70;42.90
38333;DHT22;25748;46.670;14.272;2022-07-29T11:15:13;29.60;41.50
38333;DHT22;25748;46.670;14.272;2022-07-29T11:18:07;29.50;41.20
38333;DHT22;25748;46.670;14.272;2022-07-29T11:20:45;29.80;41.00
38333;DHT22;25748;46.670;14.272;2022-07-29T11:23:32;30.40;40.50
38333;DHT22;25748;46.670;14.272;2022-07-29T11:26:19;31.00;39.50
38333;DHT22;25748;46.670;14.272;2022-07-29T11:31:42;32.20;39.20
38333;DHT22;25748;46.670;14.272;2022-07-29T11:34:24;32.60;39.10
38333;DHT22;25748;46.670;14.272;2022-07-29T11:47:51;34.20;37.80
38333;DHT22;25748;46.670;14.272;2022-07-29T11:50:30;34.60;37.90
38333;DHT22;25748;46.670;14.272;2022-07-29T11:52:56;35.00;38.10
38333;DHT22;25748;46.670;14.272;2022-07-29T11:55:23;35.20;37.60
38333;DHT22;25748;46.670;14.272;2022-07-29T11:57:54;35.40;37.40
38333;DHT22;25748;46.670;14.272;2022-07-29T12:02:51;35.90;36.70
38333;DHT22;25748;46.670;14.272;2022-07-29T12:05:17;35.70;37.00
38333;DHT22;25748;46.670;14.272;2022-07-29T12:07:43;36.10;37.30
38333;DHT22;25748;46.670;14.272;2022-07-29T12:10:09;36.40;36.40
38333;DHT22;25748;46.670;14.272;2022-07-29T12:12:35;36.60;36.40
38333;DHT22;25748;46.670;14.272;2022-07-29T12:17:37;35.80;35.90
38333;DHT22;25748;46.670;14.272;2022-07-29T12:20:04;35.70;36.30
38333;DHT22;25748;46.670;14.272;2022-07-29T12:22:33;35.50;35.90
38333;DHT22;25748;46.670;14.272;2022-07-29T12:25:05;35.80;36.40
38333;DHT22;25748;46.670;14.272;2022-07-29T12:27:31;36.20;36.60
38333;DHT22;25748;46.670;14.272;2022-07-29T12:30:03;36.60;36.70
38333;DHT22;25748;46.670;14.272;2022-07-29T12:32:45;36.80;36.70
38333;DHT22;25748;46.670;14.272;2022-07-29T12:35:18;37.10;36.50
38333;DHT22;25748;46.670;14.272;2022-07-29T12:37:48;37.20;35.40
38333;DHT22;25748;46.670;14.272;2022-07-29T12:40:17;37.40;35.70
38333;DHT22;25748;46.670;14.272;2022-07-29T12:43:15;37.50;35.90
38333;DHT22;25748;46.670;14.272;2022-07-29T12:45:45;37.40;35.30
38333;DHT22;25748;46.670;14.272;2022-07-29T12:48:12;37.30;34.80
38333;DHT22;25748;46.670;14.272;2022-07-29T12:51:00;36.80;35.10
38333;DHT22;25748;46.670;14.272;2022-07-29T12:53:27;36.70;35.50
38333;DHT22;25748;46.670;14.272;2022-07-29T12:55:56;36.80;35.40
38333;DHT22;25748;46.670;14.272;2022-07-29T12:58:27;36.60;35.30
38333;DHT22;25748;46.670;14.272;2022-07-29T13:03:41;36.70;35.20
38333;DHT22;25748;46.670;14.272;2022-07-29T13:06:06;36.80;35.20
38333;DHT22;25748;46.670;14.272;2022-07-29T13:08:32;36.80;34.70
38333;DHT22;25748;46.670;14.272;2022-07-29T13:10:58;36.80;35.40
38333;DHT22;25748;46.670;14.272;2022-07-29T13:13:23;36.60;34.80
38333;DHT22;25748;46.670;14.272;2022-07-29T13:16:06;36.90;35.80
38333;DHT22;25748;46.670;14.272;2022-07-29T13:18:34;36.60;34.40
38333;DHT22;25748;46.670;14.272;2022-07-29T13:21:12;36.50;34.60
38333;DHT22;25748;46.670;14.272;2022-07-29T13:23:38;36.60;34.60
38333;DHT22;25748;46.670;14.272;2022-07-29T13:26:11;36.60;34.90
38333;DHT22;25748;46.670;14.272;2022-07-29T13:28:37;36.40;35.00
38333;DHT22;25748;46.670;14.272;2022-07-29T13:31:03;36.30;34.40
38333;DHT22;25748;46.670;14.272;2022-07-29T13:33:29;36.00;34.60
38333;DHT22;25748;46.670;14.272;2022-07-29T13:35:56;35.90;35.00
38333;DHT22;25748;46.670;14.272;2022-07-29T13:38:21;35.70;35.40
38333;DHT22;25748;46.670;14.272;2022-07-29T13:40:47;35.90;35.30
38333;DHT22;25748;46.670;14.272;2022-07-29T13:43:13;35.80;35.00
38333;DHT22;25748;46.670;14.272;2022-07-29T13:45:39;35.50;34.40
38333;DHT22;25748;46.670;14.272;2022-07-29T13:48:05;35.50;34.60
38333;DHT22;25748;46.670;14.272;2022-07-29T13:50:31;35.40;34.90
38333;DHT22;25748;46.670;14.272;2022-07-29T13:52:58;35.40;34.80
38333;DHT22;25748;46.670;14.272;2022-07-29T13:55:24;35.30;35.00
38333;DHT22;25748;46.670;14.272;2022-07-29T13:57:50;35.40;35.30
38333;DHT22;25748;46.670;14.272;2022-07-29T14:00:17;35.30;34.80
38333;DHT22;25748;46.670;14.272;2022-07-29T14:02:44;35.30;35.40
38333;DHT22;25748;46.670;14.272;2022-07-29T14:05:10;35.50;35.60
38333;DHT22;25748;46.670;14.272;2022-07-29T14:07:41;35.50;35.40
38333;DHT22;25748;46.670;14.272;2022-07-29T14:10:10;35.50;34.90
38333;DHT22;25748;46.670;14.272;2022-07-29T14:12:38;35.50;35.00
38333;DHT22;25748;46.670;14.272;2022-07-29T14:15:04;35.40;34.90
38333;DHT22;25748;46.670;14.272;2022-07-29T14:17:30;35.20;35.60
38333;DHT22;25748;46.670;14.272;2022-07-29T14:19:56;35.00;35.90
38333;DHT22;25748;46.670;14.272;2022-07-29T14:22:21;34.90;36.30
38333;DHT22;25748;46.670;14.272;2022-07-29T14:24:47;34.50;35.50
38333;DHT22;25748;46.670;14.272;2022-07-29T14:27:13;34.20;35.90
38333;DHT22;25748;46.670;14.272;2022-07-29T14:29:38;34.10;36.10
38333;DHT22;25748;46.670;14.272;2022-07-29T14:32:08;34.00;36.40
38333;DHT22;25748;46.670;14.272;2022-07-29T14:34:36;33.70;36.40
38333;DHT22;25748;46.670;14.272;2022-07-29T14:37:03;33.60;36.40
38333;DHT22;25748;46.670;14.272;2022-07-29T14:39:31;33.30;36.00
38333;DHT22;25748;46.670;14.272;2022-07-29T14:41:56;32.80;35.60
38333;DHT22;25748;46.670;14.272;2022-07-29T14:44:22;32.70;36.00
38333;DHT22;25748;46.670;14.272;2022-07-29T14:46:50;32.60;36.60
38333;DHT22;25748;46.670;14.272;2022-07-29T14:49:15;32.40;36.70
38333;DHT22;25748;46.670;14.272;2022-07-29T14:51:41;32.30;37.00
38333;DHT22;25748;46.670;14.272;2022-07-29T14:54:07;32.20;37.10
38333;DHT22;25748;46.670;14.272;2022-07-29T14:56:33;32.10;37.20
38333;DHT22;25748;46.670;14.272;2022-07-29T14:58:58;32.00;37.10
38333;DHT22;25748;46.670;14.272;2022-07-29T15:01:24;32.00;37.30
38333;DHT22;25748;46.670;14.272;2022-07-29T15:03:51;31.90;37.60
38333;DHT22;25748;46.670;14.272;2022-07-29T15:06:17;31.80;36.90
38333;DHT22;25748;46.670;14.272;2022-07-29T15:08:43;31.70;36.40
38333;DHT22;25748;46.670;14.272;2022-07-29T15:11:15;31.50;36.80
38333;DHT22;25748;46.670;14.272;2022-07-29T15:13:41;31.40;37.30
38333;DHT22;25748;46.670;14.272;2022-07-29T15:16:07;31.30;37.30
38333;DHT22;25748;46.670;14.272;2022-07-29T15:18:32;31.30;37.40
38333;DHT22;25748;46.670;14.272;2022-07-29T15:20:58;31.20;37.50
38333;DHT22;25748;46.670;14.272;2022-07-29T15:23:26;31.10;37.30
38333;DHT22;25748;46.670;14.272;2022-07-29T15:25:51;31.10;37.60
38333;DHT22;25748;46.670;14.272;2022-07-29T15:28:17;31.10;37.90
38333;DHT22;25748;46.670;14.272;2022-07-29T15:30:43;31.00;38.00
38333;DHT22;25748;46.670;14.272;2022-07-29T15:33:09;30.90;37.20
38333;DHT22;25748;46.670;14.272;2022-07-29T15:35:38;30.80;37.60
38333;DHT22;25748;46.670;14.272;2022-07-29T15:38:03;30.80;37.90
38333;DHT22;25748;46.670;14.272;2022-07-29T15:40:29;30.70;37.50
38333;DHT22;25748;46.670;14.272;2022-07-29T15:42:55;30.60;37.40
38333;DHT22;25748;46.670;14.272;2022-07-29T15:45:21;30.40;37.30
38333;DHT22;25748;46.670;14.272;2022-07-29T15:47:47;30.30;37.80
38333;DHT22;25748;46.670;14.272;2022-07-29T15:50:12;30.30;38.30
38333;DHT22;25748;46.670;14.272;2022-07-29T15:52:44;30.20;38.60
38333;DHT22;25748;46.670;14.272;2022-07-29T15:55:10;30.10;38.80
38333;DHT22;25748;46.670;14.272;2022-07-29T15:57:35;30.00;38.10
38333;DHT22;25748;46.670;14.272;2022-07-29T16:00:03;29.90;38.30
38333;DHT22;25748;46.670;14.272;2022-07-29T16:02:29;29.80;38.30
38333;DHT22;25748;46.670;14.272;2022-07-29T16:04:54;29.80;38.60
38333;DHT22;25748;46.670;14.272;2022-07-29T16:07:20;29.70;38.60
38333;DHT22;25748;46.670;14.272;2022-07-29T16:09:46;29.60;38.70
38333;DHT22;25748;46.670;14.272;2022-07-29T16:12:12;29.50;39.10
38333;DHT22;25748;46.670;14.272;2022-07-29T16:14:37;29.50;39.60